Time;durP1;ratioP1;P1;durP2;ratioP2;P2;SDS_P1;SDS_P2;PMS_P1;PMS_P2;Temp;Humidity;BMP_temperature;BMP_pressure;BME280_temperature;BME280_humidity;BME280_pressure;Samples;Min_cycle;Max_cycle;Signal;HPM_P1;HPM_P2
2023/04/05 00:02:12;;;;;;;;;;;;;;;6.70;65.33;99072.56;5012034;28;19924;-85
2023/04/05 00:04:49;;;;;;;;;;;;;;;6.81;65.09;99073.34;5011935;28;19917;-85
2023/04/05 00:07:16;;;;;;;;;;;;;;;6.96;64.98;99077.53;5012208;28;19925;-84
2023/04/05 00:09:41;;;;;;;;;;;;;;;6.79;65.05;99082.94;5011874;28;19917;-85
2023/04/05 00:12:07;;;;;;;;;;;;;;;6.65;65.54;99070.88;5011469;28;20263;-86
2023/04/05 00:14:32;;;;;;;;;;;;;;;6.53;64.84;99077.94;5011409;28;20367;-86
2023/04/05 00:16:57;;;;;;;;;;;;;;;6.72;65.03;99080.41;4993870;28;19923;-84
2023/04/05 00:19:22;;;;;;;;;;;;;;;6.74;66.37;99084.75;5010724;28;19925;-86
2023/04/05 00:21:48;;;;;;;;;;;;;;;6.78;65.69;99077.72;5011301;28;19932;-84
2023/04/05 00:24:14;;;;;;;;;;;;;;;6.80;65.31;99082.06;5011474;28;20399;-83
2023/04/05 00:26:41;;;;;;;;;;;;;;;6.62;65.48;99085.72;5011164;28;19918;-83
2023/04/05 00:29:06;;;;;;;;;;;;;;;6.58;66.18;99083.16;5011738;28;19971;-83
2023/04/05 00:31:32;;;;;;;;;;;;;;;6.61;65.48;99078.75;5011276;28;20371;-82
2023/04/05 00:33:57;;;;;;;;;;;;;;;6.45;66.03;99078.00;4994064;28;19917;-82
2023/04/05 00:36:22;;;;;;;;;;;;;;;6.46;66.57;99078.91;5011470;28;19924;-83
2023/04/05 00:38:48;;;;;;;;;;;;;;;6.63;66.36;99084.84;5011938;28;19913;-83
2023/04/05 00:41:14;;;;;;;;;;;;;;;6.64;66.07;99083.09;5011062;28;19925;-84
2023/04/05 00:43:40;;;;;;;;;;;;;;;6.56;65.65;99071.81;5011485;28;19920;-83
2023/04/05 00:46:06;;;;;;;;;;;;;;;6.43;66.26;99079.78;5011654;28;19987;-84
2023/04/05 00:48:32;;;;;;;;;;;;;;;6.50;65.72;99084.97;5011166;28;20393;-82
2023/04/05 00:50:57;;;;;;;;;;;;;;;6.47;65.51;99078.00;4993820;28;20051;-82
2023/04/05 00:53:23;;;;;;;;;;;;;;;6.80;65.54;99079.47;5011392;28;19978;-84
2023/04/05 00:55:50;;;;;;;;;;;;;;;6.88;65.50;99089.00;5011743;28;20462;-83
2023/04/05 00:58:18;;;;;;;;;;;;;;;6.62;65.21;99077.00;5011434;28;19949;-83
2023/04/05 01:00:58;;;;;;;;;;;;;;;6.44;65.44;99083.25;4993749;28;20367;-83
2023/04/05 01:03:26;;;;;;;;;;;;;;;6.42;65.80;99077.16;4993151;28;20296;-83
2023/04/05 01:05:57;;;;;;;;;;;;;;;6.24;65.23;99083.41;5011777;28;20341;-84
2023/04/05 01:08:36;;;;;;;;;;;;;;;6.44;65.59;99085.88;5010932;28;20000;-83
2023/04/05 01:11:03;;;;;;;;;;;;;;;6.42;66.06;99071.94;5010894;28;19917;-84
2023/04/05 01:13:28;;;;;;;;;;;;;;;6.48;65.21;99090.22;5010722;28;19924;-85
2023/04/05 01:15:54;;;;;;;;;;;;;;;6.41;64.48;99089.41;5011006;28;20016;-84
2023/04/05 01:18:20;;;;;;;;;;;;;;;6.33;65.11;99083.34;5010527;28;20422;-84
2023/04/05 01:20:51;;;;;;;;;;;;;;;6.32;65.54;99089.47;5010808;28;19914;-85
2023/04/05 01:23:17;;;;;;;;;;;;;;;6.21;65.26;99094.81;5011241;28;19972;-86
2023/04/05 01:25:51;;;;;;;;;;;;;;;6.18;65.83;99086.97;5010867;28;19918;-84
2023/04/05 01:28:35;;;;;;;;;;;;;;;6.26;66.16;99087.78;5010605;28;19925;-83
2023/04/05 01:31:06;;;;;;;;;;;;;;;6.28;65.77;99098.22;5010603;28;19940;-83
2023/04/05 01:33:36;;;;;;;;;;;;;;;6.14;65.92;99090.47;5010942;28;19914;-84
2023/04/05 01:36:07;;;;;;;;;;;;;;;6.24;65.28;99081.69;5011026;28;19919;-83
2023/04/05 01:38:34;;;;;;;;;;;;;;;6.11;66.29;99081.78;5010715;28;19931;-83
2023/04/05 01:40:59;;;;;;;;;;;;;;;6.24;66.49;99091.28;5010944;28;19917;-85
2023/04/05 01:43:24;;;;;;;;;;;;;;;6.18;65.70;99079.09;4992412;28;20349;-83
2023/04/05 01:45:50;;;;;;;;;;;;;;;6.13;65.80;99088.72;5010526;28;19928;-83
2023/04/05 01:48:15;;;;;;;;;;;;;;;6.20;66.93;99097.44;5010489;28;19913;-83
2023/04/05 01:50:40;;;;;;;;;;;;;;;6.20;66.06;99093.06;5010476;28;19917;-84
2023/04/05 01:53:06;;;;;;;;;;;;;;;6.30;66.14;99099.09;5011001;28;19914;-85
2023/04/05 01:55:32;;;;;;;;;;;;;;;6.19;66.33;99088.69;5010282;28;19917;-83
2023/04/05 01:57:57;;;;;;;;;;;;;;;6.03;66.35;99080.06;5010481;28;20383;-86
2023/04/05 02:00:22;;;;;;;;;;;;;;;6.15;66.53;99094.84;4992493;28;19913;-84
2023/04/05 02:02:48;;;;;;;;;;;;;;;6.19;67.16;99095.69;5010837;28;19917;-84
2023/04/05 02:05:13;;;;;;;;;;;;;;;6.12;66.19;99087.00;5010345;28;19971;-83
2023/04/05 02:07:38;;;;;;;;;;;;;;;6.00;66.34;99102.78;5009542;28;21442;-83
2023/04/05 02:10:04;;;;;;;;;;;;;;;6.08;66.71;99093.13;5010433;28;19920;-85
2023/04/05 02:12:30;;;;;;;;;;;;;;;6.11;67.11;99106.19;5014026;28;19917;-85
2023/04/05 02:14:55;;;;;;;;;;;;;;;6.08;66.73;99101.84;5012393;28;19917;-84
2023/04/05 02:17:20;;;;;;;;;;;;;;;5.98;66.73;99097.56;5010959;28;20306;-84
2023/04/05 02:19:46;;;;;;;;;;;;;;;5.96;66.10;99108.88;5010893;28;19913;-82
2023/04/05 02:22:12;;;;;;;;;;;;;;;6.03;66.98;99108.88;5025523;28;19971;-84
2023/04/05 02:24:37;;;;;;;;;;;;;;;6.08;65.94;99098.38;5009089;28;19959;-83
2023/04/05 02:27:03;;;;;;;;;;;;;;;6.00;66.26;99106.28;5010218;28;19921;-84
2023/04/05 02:29:28;;;;;;;;;;;;;;;5.95;66.26;99118.50;5010781;28;19914;-83
2023/04/05 02:31:53;;;;;;;;;;;;;;;5.92;66.66;99123.75;5010063;28;19914;-84
2023/04/05 02:34:19;;;;;;;;;;;;;;;6.11;66.60;99123.69;5010115;28;20414;-84
2023/04/05 02:36:44;;;;;;;;;;;;;;;6.06;66.07;99135.03;5009911;28;20288;-86
2023/04/05 02:39:09;;;;;;;;;;;;;;;5.99;65.93;99128.09;5010379;28;19913;-85
2023/04/05 02:41:35;;;;;;;;;;;;;;;5.95;66.06;99125.47;5010428;28;19913;-84
2023/04/05 02:44:00;;;;;;;;;;;;;;;5.91;66.74;99127.22;5013580;28;19928;-85
2023/04/05 02:46:26;;;;;;;;;;;;;;;5.91;66.86;99129.84;5013738;28;19923;-83
2023/04/05 02:48:51;;;;;;;;;;;;;;;6.07;67.16;99128.94;4994988;28;20354;-85
2023/04/05 02:51:16;;;;;;;;;;;;;;;5.88;67.03;99141.19;5013685;28;19968;-86
2023/04/05 02:53:43;;;;;;;;;;;;;;;5.88;67.07;99143.81;5013981;28;20011;-86
2023/04/05 02:56:12;;;;;;;;;;;;;;;5.89;67.16;99142.09;5013623;28;19926;-85
2023/04/05 02:58:37;;;;;;;;;;;;;;;5.85;66.31;99143.81;5012842;28;20012;-83
2023/04/05 03:01:06;;;;;;;;;;;;;;;5.77;67.29;99148.25;5013292;28;20475;-84
2023/04/05 03:03:33;;;;;;;;;;;;;;;5.85;65.47;99145.59;4995288;28;19944;-88
2023/04/05 03:06:00;;;;;;;;;;;;;;;5.67;66.17;99142.19;5013731;28;20276;-84
2023/04/05 03:08:27;;;;;;;;;;;;;;;5.64;66.58;99149.16;5013395;28;19913;-84
2023/04/05 03:10:53;;;;;;;;;;;;;;;5.69;66.72;99153.50;5013003;28;20003;-83
2023/04/05 03:13:18;;;;;;;;;;;;;;;5.72;66.38;99144.78;5012959;28;19948;-84
2023/04/05 03:15:43;;;;;;;;;;;;;;;5.80;66.03;99156.06;5012464;28;19921;-86
2023/04/05 03:18:09;;;;;;;;;;;;;;;5.80;65.93;99149.97;5013309;28;19953;-83
2023/04/05 03:20:38;;;;;;;;;;;;;;;5.89;65.30;99160.41;5011896;28;19921;-85
2023/04/05 03:23:05;;;;;;;;;;;;;;;5.82;65.29;99159.53;5018870;28;19920;-84
2023/04/05 03:25:30;;;;;;;;;;;;;;;5.73;65.89;99162.19;5024786;28;20404;-84
2023/04/05 03:27:56;;;;;;;;;;;;;;;5.87;65.80;99164.75;5011219;28;19918;-87
2023/04/05 03:30:22;;;;;;;;;;;;;;;5.65;65.56;99159.63;5026838;28;20367;-84
2023/04/05 03:32:47;;;;;;;;;;;;;;;5.90;65.52;99164.75;5011936;28;20000;-85
2023/04/05 03:35:15;;;;;;;;;;;;;;;5.62;65.24;99167.47;5012747;28;20048;-84
2023/04/05 03:37:40;;;;;;;;;;;;;;;5.54;66.06;99161.41;5012204;28;20447;-84
2023/04/05 03:40:09;;;;;;;;;;;;;;;5.47;65.86;99159.66;5012389;28;20000;-85
2023/04/05 03:42:34;;;;;;;;;;;;;;;5.60;65.94;99158.78;5011482;28;20446;-86
2023/04/05 03:45:00;;;;;;;;;;;;;;;5.67;65.72;99177.94;5012928;28;20019;-87
2023/04/05 03:47:25;;;;;;;;;;;;;;;5.51;65.95;99169.25;5012457;28;20292;-84
2023/04/05 03:49:51;;;;;;;;;;;;;;;5.53;65.76;99170.13;5011614;28;19913;-86
2023/04/05 03:52:16;;;;;;;;;;;;;;;5.50;65.04;99171.03;5012016;28;19913;-90
2023/04/05 03:54:41;;;;;;;;;;;;;;;5.55;65.31;99163.16;4994901;28;19968;-85
2023/04/05 03:57:06;;;;;;;;;;;;;;;5.71;64.95;99161.34;5011222;28;19924;-87
2023/04/05 03:59:32;;;;;;;;;;;;;;;5.61;65.59;99171.00;5012919;28;20426;-87
2023/04/05 04:01:57;;;;;;;;;;;;;;;5.74;65.14;99166.56;5012546;28;19921;-85
2023/04/05 04:04:22;;;;;;;;;;;;;;;5.60;65.03;99178.84;5013819;28;20008;-83
2023/04/05 04:06:48;;;;;;;;;;;;;;;5.70;65.84;99178.81;5020278;28;19953;-88
2023/04/05 04:09:13;;;;;;;;;;;;;;;5.62;65.04;99177.09;5011561;28;20012;-83
2023/04/05 04:11:38;;;;;;;;;;;;;;;5.81;64.93;99180.50;5011264;28;20318;-84
2023/04/05 04:14:04;;;;;;;;;;;;;;;5.82;64.84;99188.34;5011344;28;20706;-84
2023/04/05 04:16:29;;;;;;;;;;;;;;;5.71;64.55;99191.00;5011946;28;19923;-86
2023/04/05 04:18:55;;;;;;;;;;;;;;;5.68;65.01;99201.47;5011345;28;19917;-84
2023/04/05 04:21:23;;;;;;;;;;;;;;;5.90;65.19;99204.00;5011476;28;19918;-83
2023/04/05 04:23:50;;;;;;;;;;;;;;;5.91;65.00;99200.53;5011222;28;19920;-83
2023/04/05 04:26:16;;;;;;;;;;;;;;;5.96;64.62;99206.63;5010876;28;20302;-82
2023/04/05 04:28:42;;;;;;;;;;;;;;;5.96;64.64;99206.63;4994152;28;19917;-83
2023/04/05 04:31:12;;;;;;;;;;;;;;;6.14;64.86;99215.31;5007986;28;20003;-82
2023/04/05 04:33:39;;;;;;;;;;;;;;;6.05;65.69;99216.22;5011441;28;19948;-83
2023/04/05 04:36:12;;;;;;;;;;;;;;;5.95;65.05;99206.63;5011451;28;19916;-83
2023/04/05 04:38:41;;;;;;;;;;;;;;;6.18;65.54;99215.28;5010401;28;19925;-82
2023/04/05 04:41:07;;;;;;;;;;;;;;;6.27;65.27;99214.34;5010821;28;19917;-84
2023/04/05 04:43:36;;;;;;;;;;;;;;;6.22;65.16;99222.25;5012033;28;19914;-83
2023/04/05 04:46:05;;;;;;;;;;;;;;;6.29;64.84;99225.72;5005617;28;19917;-82
2023/04/05 04:48:32;;;;;;;;;;;;;;;6.37;64.71;99228.31;5005516;28;20017;-83
2023/04/05 04:50:57;;;;;;;;;;;;;;;6.40;64.63;99233.53;4991637;28;20374;-84
2023/04/05 04:53:23;;;;;;;;;;;;;;;6.56;65.25;99242.16;4996705;28;20598;-84
2023/04/05 04:55:48;;;;;;;;;;;;;;;6.35;64.78;99236.16;4994840;28;20419;-84
2023/04/05 04:58:14;;;;;;;;;;;;;;;6.33;65.37;99247.53;4992050;28;19918;-83
2023/04/05 05:00:43;;;;;;;;;;;;;;;6.27;66.19;99238.81;5007495;28;19917;-83
2023/04/05 05:03:11;;;;;;;;;;;;;;;6.34;65.59;99242.28;5010579;28;19953;-83
2023/04/05 05:05:43;;;;;;;;;;;;;;;6.26;66.46;99244.06;5010315;28;19966;-84
2023/04/05 05:08:08;;;;;;;;;;;;;;;6.50;65.46;99244.81;5009635;28;19917;-83
2023/04/05 05:10:34;;;;;;;;;;;;;;;6.21;66.09;99248.44;4992999;28;20020;-83
2023/04/05 05:12:59;;;;;;;;;;;;;;;6.33;66.17;99255.38;5010283;28;20001;-82
2023/04/05 05:15:26;;;;;;;;;;;;;;;6.51;65.28;99254.44;4983669;28;20025;-83
2023/04/05 05:17:52;;;;;;;;;;;;;;;6.31;65.78;99257.16;5006524;28;20012;-81
2023/04/05 05:20:18;;;;;;;;;;;;;;;6.32;65.17;99261.50;5010390;28;19920;-82
2023/04/05 05:22:45;;;;;;;;;;;;;;;6.52;65.48;99253.53;5009830;28;19921;-83
2023/04/05 05:25:11;;;;;;;;;;;;;;;6.42;65.18;99253.56;5013043;28;20310;-83
2023/04/05 05:27:36;;;;;;;;;;;;;;;6.58;65.09;99262.25;5023698;28;19917;-82
2023/04/05 05:30:02;;;;;;;;;;;;;;;6.63;65.21;99251.72;5016007;28;19913;-83
2023/04/05 05:32:27;;;;;;;;;;;;;;;6.81;64.70;99258.59;5020911;28;19921;-83
2023/04/05 05:34:52;;;;;;;;;;;;;;;6.76;64.42;99257.75;5029512;28;20006;-83
2023/04/05 05:37:18;;;;;;;;;;;;;;;6.78;64.55;99253.38;5011852;28;19940;-83
2023/04/05 05:39:44;;;;;;;;;;;;;;;7.14;63.52;99254.84;5030125;28;19917;-82
2023/04/05 05:42:09;;;;;;;;;;;;;;;7.20;63.65;99260.94;5012884;28;20014;-82
2023/04/05 05:44:35;;;;;;;;;;;;;;;7.35;62.68;99263.41;5030571;28;19959;-84
2023/04/05 05:47:01;;;;;;;;;;;;;;;7.13;62.95;99263.59;5010465;28;19913;-81
2023/04/05 05:49:27;;;;;;;;;;;;;;;6.97;62.39;99264.63;5010681;28;19917;-82
2023/04/05 05:51:52;;;;;;;;;;;;;;;7.04;63.22;99260.19;5010824;28;20007;-83
2023/04/05 05:54:18;;;;;;;;;;;;;;;6.94;62.41;99268.13;5010498;28;19914;-81
2023/04/05 05:56:43;;;;;;;;;;;;;;;6.90;62.57;99265.53;5010370;28;19918;-82
2023/04/05 05:59:08;;;;;;;;;;;;;;;7.04;63.12;99260.19;4993113;28;20304;-83
2023/04/05 06:01:37;;;;;;;;;;;;;;;6.99;63.39;99266.31;5010086;28;19967;-83
2023/04/05 06:04:03;;;;;;;;;;;;;;;7.10;63.28;99261.00;5010471;28;20025;-82
2023/04/05 06:06:28;;;;;;;;;;;;;;;7.19;63.94;99267.09;5009880;28;19940;-82
2023/04/05 06:08:54;;;;;;;;;;;;;;;7.04;62.13;99257.56;5009913;28;19917;-82
2023/04/05 06:11:24;;;;;;;;;;;;;;;7.23;62.61;99260.91;5009879;28;19924;-82
2023/04/05 06:13:51;;;;;;;;;;;;;;;7.15;62.85;99263.59;5009830;28;19917;-81
2023/04/05 06:16:16;;;;;;;;;;;;;;;7.03;61.60;99261.94;5009758;28;20063;-83
2023/04/05 06:18:42;;;;;;;;;;;;;;;7.08;62.49;99262.78;5012041;28;20007;-82
2023/04/05 06:21:08;;;;;;;;;;;;;;;7.13;63.41;99260.97;5016985;28;19928;-82
2023/04/05 06:23:33;;;;;;;;;;;;;;;7.65;63.51;99270.16;5033800;28;20270;-83
2023/04/05 06:25:58;;;;;;;;;;;;;;;7.54;62.25;99274.66;5007992;28;20277;-84
2023/04/05 06:28:24;;;;;;;;;;;;;;;7.26;63.23;99274.00;4994662;28;20398;-82
2023/04/05 06:30:49;;;;;;;;;;;;;;;7.46;63.21;99269.47;4994122;28;19920;-82
2023/04/05 06:33:14;;;;;;;;;;;;;;;7.80;60.58;99276.13;4993730;28;19921;-82
2023/04/05 06:35:40;;;;;;;;;;;;;;;7.68;61.06;99271.88;4999649;28;19924;-83
2023/04/05 06:38:05;;;;;;;;;;;;;;;7.46;60.69;99273.81;5014065;28;19924;-83
2023/04/05 06:40:30;;;;;;;;;;;;;;;7.61;61.49;99272.81;5013995;28;19932;-84
2023/04/05 06:42:56;;;;;;;;;;;;;;;8.11;62.15;99270.53;5013425;28;19953;-86
2023/04/05 06:45:21;;;;;;;;;;;;;;;7.91;60.22;99276.91;5013410;28;20276;-85
2023/04/05 06:47:46;;;;;;;;;;;;;;;8.19;60.35;99279.22;5013397;28;20299;-84
2023/04/05 06:50:12;;;;;;;;;;;;;;;8.22;58.13;99289.69;5013892;28;19917;-84
2023/04/05 06:52:37;;;;;;;;;;;;;;;8.10;60.20;99276.69;5013873;28;19910;-85
2023/04/05 06:55:03;;;;;;;;;;;;;;;8.02;58.44;99290.78;5013242;28;20118;-86
2023/04/05 06:57:29;;;;;;;;;;;;;;;8.42;58.43;99287.69;4996101;28;20376;-85
2023/04/05 06:59:55;;;;;;;;;;;;;;;8.43;56.98;99293.78;5013126;28;19913;-86
2023/04/05 07:02:20;;;;;;;;;;;;;;;8.31;59.05;99297.47;5013510;28;19961;-84
2023/04/05 07:04:47;;;;;;;;;;;;;;;8.59;59.38;99291.88;4995520;28;19924;-84
2023/04/05 07:07:12;;;;;;;;;;;;;;;8.83;59.11;99301.19;5013666;28;19914;-84
2023/04/05 07:09:38;;;;;;;;;;;;;;;8.97;54.93;99308.88;4995420;28;20123;-84
2023/04/05 07:12:04;;;;;;;;;;;;;;;8.50;56.67;99313.03;5013416;28;19925;-85
2023/04/05 07:14:30;;;;;;;;;;;;;;;8.39;56.95;99318.41;4995193;28;19909;-85
2023/04/05 07:16:55;;;;;;;;;;;;;;;8.17;58.23;99316.00;4995517;28;20402;-84
2023/04/05 07:19:21;;;;;;;;;;;;;;;8.12;58.11;99330.94;4995185;28;19935;-84
2023/04/05 07:21:47;;;;;;;;;;;;;;;8.49;58.57;99321.81;5013123;28;20350;-85
2023/04/05 07:24:12;;;;;;;;;;;;;;;8.76;59.48;99318.81;5013292;28;19914;-84
2023/04/05 07:26:38;;;;;;;;;;;;;;;8.64;57.56;99312.84;5013293;28;19914;-85
2023/04/05 07:29:03;;;;;;;;;;;;;;;8.71;56.98;99320.66;5012829;28;19953;-85
2023/04/05 07:31:30;;;;;;;;;;;;;;;8.14;59.05;99326.56;5012697;28;19967;-85
2023/04/05 07:33:57;;;;;;;;;;;;;;;8.36;58.46;99323.69;5012922;28;19913;-85
2023/04/05 07:36:22;;;;;;;;;;;;;;;8.23;58.37;99331.72;5012750;28;20454;-85
2023/04/05 07:38:47;;;;;;;;;;;;;;;8.07;58.03;99325.72;4995570;28;19914;-84
2023/04/05 07:41:15;;;;;;;;;;;;;;;8.19;57.20;99326.50;4995072;28;19917;-85
2023/04/05 07:43:40;;;;;;;;;;;;;;;8.03;58.17;99336.28;5012843;28;20000;-85
2023/04/05 07:46:06;;;;;;;;;;;;;;;7.96;58.88;99325.00;5013073;28;20088;-84
2023/04/05 07:48:31;;;;;;;;;;;;;;;7.83;57.90;99324.25;4994678;28;20370;-86
2023/04/05 07:51:01;;;;;;;;;;;;;;;8.07;58.35;99330.13;5012700;28;19921;-84
2023/04/05 07:53:27;;;;;;;;;;;;;;;8.11;57.13;99342.34;5012413;28;20383;-85
2023/04/05 07:55:52;;;;;;;;;;;;;;;8.44;57.49;99329.75;5012496;28;19924;-83
2023/04/05 07:58:17;;;;;;;;;;;;;;;8.41;57.60;99340.25;5013018;28;19913;-86
2023/04/05 08:00:43;;;;;;;;;;;;;;;8.36;59.10;99342.94;5012249;28;20087;-84
2023/04/05 08:03:08;;;;;;;;;;;;;;;8.22;56.09;99347.50;5012178;28;19919;-85
2023/04/05 08:05:33;;;;;;;;;;;;;;;8.33;55.81;99350.00;4994998;28;19913;-84
2023/04/05 08:07:59;;;;;;;;;;;;;;;8.19;56.33;99344.91;5012535;28;20229;-86
2023/04/05 08:10:24;;;;;;;;;;;;;;;8.59;56.38;99349.72;5011951;28;20394;-85
2023/04/05 08:12:50;;;;;;;;;;;;;;;8.53;56.26;99352.44;5012533;28;19936;-86
2023/04/05 08:15:15;;;;;;;;;;;;;;;8.40;56.18;99356.91;5011567;28;19953;-85
2023/04/05 08:17:40;;;;;;;;;;;;;;;8.38;55.76;99361.31;5012320;28;20010;-85
2023/04/05 08:20:06;;;;;;;;;;;;;;;8.91;56.52;99351.03;5012252;28;20379;-85
2023/04/05 08:22:31;;;;;;;;;;;;;;;8.80;54.83;99348.56;5012450;28;19914;-84
2023/04/05 08:24:57;;;;;;;;;;;;;;;8.66;53.92;99359.25;4994661;28;19918;-85
2023/04/05 08:27:22;;;;;;;;;;;;;;;8.76;54.31;99365.28;5012158;28;20008;-85
2023/04/05 08:29:47;;;;;;;;;;;;;;;8.47;54.78;99358.63;4994455;28;19917;-83
2023/04/05 08:32:13;;;;;;;;;;;;;;;8.68;56.86;99354.88;5012553;28;20016;-84
2023/04/05 08:34:38;;;;;;;;;;;;;;;8.63;55.81;99353.19;5012189;28;19917;-84
2023/04/05 08:37:04;;;;;;;;;;;;;;;9.07;53.43;99364.88;5011824;28;19945;-85
2023/04/05 08:39:29;;;;;;;;;;;;;;;8.93;54.00;99365.06;5011655;28;19914;-84
2023/04/05 08:42:10;;;;;;;;;;;;;;;8.90;54.43;99365.97;5011376;28;20296;-85
2023/04/05 08:44:36;;;;;;;;;;;;;;;8.89;54.29;99366.00;5011515;28;20402;-84
2023/04/05 08:47:01;;;;;;;;;;;;;;;9.04;53.57;99368.41;5011727;28;20012;-86
2023/04/05 08:49:27;;;;;;;;;;;;;;;9.07;53.77;99375.41;5011956;28;20370;-85
2023/04/05 08:51:52;;;;;;;;;;;;;;;9.27;54.48;99370.72;5011403;28;19913;-85
2023/04/05 08:54:17;;;;;;;;;;;;;;;9.17;52.90;99378.75;4994235;28;19913;-84
2023/04/05 08:56:45;;;;;;;;;;;;;;;9.18;53.46;99378.75;5011507;28;20373;-86
2023/04/05 08:59:11;;;;;;;;;;;;;;;9.21;54.63;99369.94;5011462;28;19913;-85
2023/04/05 09:01:40;;;;;;;;;;;;;;;9.22;55.35;99375.19;4993022;28;20016;-87
2023/04/05 09:04:10;;;;;;;;;;;;;;;8.85;53.43;99388.84;5008176;28;19921;-87
2023/04/05 09:06:36;;;;;;;;;;;;;;;8.57;52.16;99386.56;5002939;28;19924;-86
2023/04/05 09:09:04;;;;;;;;;;;;;;;8.55;53.40;99383.06;5010508;28;20287;-85
2023/04/05 09:11:30;;;;;;;;;;;;;;;8.61;53.38;99379.50;5000322;28;20515;-84
2023/04/05 09:13:55;;;;;;;;;;;;;;;8.52;53.38;99387.47;5004722;28;20000;-86
2023/04/05 09:16:21;;;;;;;;;;;;;;;8.68;53.86;99383.78;5009938;28;20391;-86
2023/04/05 09:18:48;;;;;;;;;;;;;;;8.55;53.02;99390.94;5009454;28;19913;-86
2023/04/05 09:21:14;;;;;;;;;;;;;;;8.70;53.18;99382.00;4990182;28;19914;-82
2023/04/05 09:23:49;;;;;;;;;;;;;;;8.72;53.41;99382.84;5001325;28;19918;-86
2023/04/05 09:26:18;;;;;;;;;;;;;;;8.83;53.99;99395.00;5009959;28;19914;-86
2023/04/05 09:28:44;;;;;;;;;;;;;;;9.03;53.94;99386.84;5009435;28;19921;-87
2023/04/05 09:31:27;;;;;;;;;;;;;;;9.24;54.47;99385.69;5010100;28;19920;-86
2023/04/05 09:33:53;;;;;;;;;;;;;;;8.81;52.35;99384.50;5009822;28;19921;-86
2023/04/05 09:36:18;;;;;;;;;;;;;;;8.85;52.74;99378.31;5011396;28;19920;-87
2023/04/05 09:38:44;;;;;;;;;;;;;;;8.79;52.21;99386.28;5020305;28;19940;-88
2023/04/05 09:41:10;;;;;;;;;;;;;;;8.54;51.52;99390.97;5004043;28;19920;-90
2023/04/05 09:43:39;;;;;;;;;;;;;;;8.58;52.47;99377.75;4999192;28;19975;-86
2023/04/05 09:46:05;;;;;;;;;;;;;;;8.57;51.70;99390.91;5030511;28;20046;-85
2023/04/05 09:48:48;;;;;;;;;;;;;;;8.61;53.36;99382.13;5030700;28;19913;-87
2023/04/05 09:51:15;;;;;;;;;;;;;;;8.75;53.42;99382.81;5033979;28;20446;-86
2023/04/05 09:53:59;;;;;;;;;;;;;;;8.86;52.41;99390.56;5036016;28;20390;-86
2023/04/05 09:56:25;;;;;;;;;;;;;;;8.59;52.98;99390.03;5036174;28;19963;-85
2023/04/05 09:58:51;;;;;;;;;;;;;;;8.80;52.35;99381.88;5036314;28;19913;-87
2023/04/05 10:01:16;;;;;;;;;;;;;;;8.73;52.87;99383.75;5036250;28;19928;-88
2023/04/05 10:03:48;;;;;;;;;;;;;;;8.88;53.04;99385.28;5035864;28;19928;-85
2023/04/05 10:06:17;;;;;;;;;;;;;;;8.77;53.20;99394.19;5018550;28;19916;-86
2023/04/05 10:08:43;;;;;;;;;;;;;;;8.82;54.59;99385.38;5035461;28;20724;-87
2023/04/05 10:11:09;;;;;;;;;;;;;;;8.85;54.87;99396.75;5036623;28;19917;-89
2023/04/05 10:13:36;;;;;;;;;;;;;;;8.86;51.97;99395.81;5036175;28;19909;-87
2023/04/05 10:16:04;;;;;;;;;;;;;;;8.84;53.57;99397.63;5035836;28;19956;-85
2023/04/05 10:18:37;;;;;;;;;;;;;;;8.75;53.41;99395.09;5017996;28;19913;-85
2023/04/05 10:21:03;;;;;;;;;;;;;;;8.68;53.35;99401.31;5036186;28;20026;-86
2023/04/05 10:23:31;;;;;;;;;;;;;;;8.58;55.11;99388.28;5035845;28;19931;-85
2023/04/05 10:26:15;;;;;;;;;;;;;;;8.61;54.11;99397.91;5035839;28;20414;-84
2023/04/05 10:28:42;;;;;;;;;;;;;;;8.66;55.13;99390.81;5036077;28;19932;-85
2023/04/05 10:31:14;;;;;;;;;;;;;;;8.84;54.26;99399.38;5051159;28;19909;-83
2023/04/05 10:33:42;;;;;;;;;;;;;;;8.62;53.13;99407.53;5036197;28;19966;-83
2023/04/05 10:36:23;;;;;;;;;;;;;;;8.44;54.12;99399.84;5036271;28;19912;-83
2023/04/05 10:39:09;;;;;;;;;;;;;;;8.52;55.09;99404.13;5036008;28;19914;-83
2023/04/05 10:41:45;;;;;;;;;;;;;;;8.64;54.99;99399.63;5017894;28;19920;-84
2023/04/05 10:44:10;;;;;;;;;;;;;;;8.67;54.79;99408.34;5035902;28;20028;-85
2023/04/05 10:46:39;;;;;;;;;;;;;;;8.66;55.61;99398.69;5036034;28;20004;-85
2023/04/05 10:49:23;;;;;;;;;;;;;;;8.91;57.42;99401.03;5035541;28;19971;-86
2023/04/05 10:51:49;;;;;;;;;;;;;;;8.80;55.94;99413.47;5036000;28;20402;-84
2023/04/05 10:54:16;;;;;;;;;;;;;;;8.86;54.91;99408.13;5036117;28;19920;-85
2023/04/05 10:56:42;;;;;;;;;;;;;;;8.65;55.18;99412.75;5035839;28;20189;-84
2023/04/05 10:59:08;;;;;;;;;;;;;;;8.99;56.59;99408.81;5035588;28;19913;-83
2023/04/05 11:01:34;;;;;;;;;;;;;;;8.92;55.56;99416.78;5035321;28;19932;-82
2023/04/05 11:04:13;;;;;;;;;;;;;;;8.55;56.15;99416.38;5032732;28;19920;-83
2023/04/05 11:06:38;;;;;;;;;;;;;;;8.57;57.30;99412.84;5032657;28;19913;-83
2023/04/05 11:09:11;;;;;;;;;;;;;;;8.66;57.69;99426.78;5032910;28;19912;-84
2023/04/05 11:11:41;;;;;;;;;;;;;;;8.58;57.77;99411.94;5032382;28;19908;-84
2023/04/05 11:14:17;;;;;;;;;;;;;;;8.73;60.38;99415.28;5032780;28;19940;-84
2023/04/05 11:16:45;;;;;;;;;;;;;;;8.67;61.84;99418.00;5032198;28;19967;-85
2023/04/05 11:19:10;;;;;;;;;;;;;;;8.80;58.86;99421.34;5032082;28;19970;-85
2023/04/05 11:21:35;;;;;;;;;;;;;;;8.95;56.96;99419.38;5032307;28;19917;-85
2023/04/05 11:24:02;;;;;;;;;;;;;;;8.75;59.10;99414.38;5014259;28;19913;-84
2023/04/05 11:26:31;;;;;;;;;;;;;;;8.85;58.85;99420.41;5032582;28;19913;-84
2023/04/05 11:28:57;;;;;;;;;;;;;;;8.56;61.19;99420.75;5032145;28;19913;-83
2023/04/05 11:31:25;;;;;;;;;;;;;;;8.44;61.02;99423.50;5032125;28;19919;-84
2023/04/05 11:33:53;;;;;;;;;;;;;;;8.57;60.10;99427.72;5014650;28;20425;-82
2023/04/05 11:36:34;;;;;;;;;;;;;;;8.81;59.27;99426.59;5032497;28;19920;-84
2023/04/05 11:39:18;;;;;;;;;;;;;;;8.99;57.89;99424.59;5031956;28;20051;-86
2023/04/05 11:42:03;;;;;;;;;;;;;;;8.86;57.58;99421.28;5031678;28;19921;-83
2023/04/05 11:44:30;;;;;;;;;;;;;;;8.76;56.81;99429.28;5031743;28;19913;-85
2023/04/05 11:46:56;;;;;;;;;;;;;;;8.81;55.52;99426.59;5032003;28;19920;-84
2023/04/05 11:49:23;;;;;;;;;;;;;;;8.88;57.34;99428.25;5032023;28;19913;-85
2023/04/05 11:51:49;;;;;;;;;;;;;;;8.92;56.05;99427.31;5031931;28;19920;-83
2023/04/05 11:54:31;;;;;;;;;;;;;;;8.93;54.79;99425.56;5031370;28;20038;-82
2023/04/05 11:56:56;;;;;;;;;;;;;;;8.98;57.43;99421.13;5031733;28;20305;-83
2023/04/05 11:59:34;;;;;;;;;;;;;;;9.02;56.18;99421.94;5031607;28;19913;-84
2023/04/05 12:02:01;;;;;;;;;;;;;;;9.15;53.73;99423.53;5031619;28;19917;-85
2023/04/05 12:04:26;;;;;;;;;;;;;;;8.74;55.68;99424.91;5031141;28;19963;-83
2023/04/05 12:07:28;;;;;;;;;;;;;;;8.87;55.19;99416.00;5031782;28;19917;-83
2023/04/05 12:10:01;;;;;;;;;;;;;;;9.19;56.48;99414.72;4951380;29;19914;-83
2023/04/05 12:12:27;;;;;;;;;;;;;;;9.20;57.06;99419.06;4951090;29;19914;-84
2023/04/05 12:14:57;;;;;;;;;;;;;;;9.31;56.50;99414.53;4950078;28;20286;-84
2023/04/05 12:17:42;;;;;;;;;;;;;;;9.47;56.03;99415.16;4951111;29;19977;-84
2023/04/05 12:20:09;;;;;;;;;;;;;;;9.38;54.20;99411.81;4950349;29;19915;-82
2023/04/05 12:22:35;;;;;;;;;;;;;;;9.49;54.79;99409.88;4951130;29;20001;-82
2023/04/05 12:25:01;;;;;;;;;;;;;;;9.62;54.95;99415.81;4950988;29;19910;-82
2023/04/05 12:27:26;;;;;;;;;;;;;;;9.29;53.72;99408.41;4950787;29;19914;-82
2023/04/05 12:30:10;;;;;;;;;;;;;;;9.14;53.93;99417.41;4950845;29;19929;-82
2023/04/05 12:32:39;;;;;;;;;;;;;;;9.12;53.93;99411.25;4950729;29;19910;-82
2023/04/05 12:35:05;;;;;;;;;;;;;;;9.17;53.58;99420.88;4950986;29;19922;-82
2023/04/05 12:37:32;;;;;;;;;;;;;;;9.13;56.30;99406.91;4950250;29;19910;-83
2023/04/05 12:40:01;;;;;;;;;;;;;;;9.41;55.15;99410.00;4950249;29;20004;-82
2023/04/05 12:42:29;;;;;;;;;;;;;;;9.63;54.80;99415.78;4950610;29;19914;-84
2023/04/05 12:45:03;;;;;;;;;;;;;;;9.40;54.08;99415.28;5026592;28;19913;-84
2023/04/05 12:47:28;;;;;;;;;;;;;;;9.41;55.08;99410.00;5030666;28;19932;-84
2023/04/05 12:49:54;;;;;;;;;;;;;;;9.29;55.44;99416.28;5030733;28;19917;-83
2023/04/05 12:52:22;;;;;;;;;;;;;;;8.96;55.33;99428.16;5031123;28;20284;-84
2023/04/05 12:54:54;;;;;;;;;;;;;;;8.82;56.53;99427.44;5030202;28;19913;-83
2023/04/05 12:57:27;;;;;;;;;;;;;;;8.74;56.76;99425.81;5031226;28;19917;-84
2023/04/05 12:59:52;;;;;;;;;;;;;;;8.76;57.67;99431.91;5030774;28;19913;-84